Main page
METAR-TAF:

METAR-TAF

Airports :

Toncontín International Airport

Tegucigalpa, Honduras

latitude: 14-03N, longitude: 087-13W, elevation: 994 m

Current weather observation

The report was made 47 minutes ago, at 10:00 UTC
Wind 5 kt from the Northeast
Temperature 20°C
Humidity 83%
Pressure 1018 hPa
Visibility: 8000 m
Broken clouds at a height of 2800 ft
showers in vicinity

METAR: MHTG 091000Z 05005KT 8000 VCSH BKN028 20/17 Q1018 A3006 NOSIG

Time: 04:47 (10:47 UTC)

Forecast

The report was made 7 hours and 2 minutes ago, at 03:45 UTC
Forecast valid from 09 at 06 UTC to 10 at 06 UTC
Wind 3 kt from variable directions
Visibility: 8000 m
Scattered clouds at a height of 3000 ft
Becoming
from 09 at 12 UTC to 09 at 14 UTC
Wind 10 kt from the East
Visibility 10 km or more
no clouds below 1500 m and no cumulonimbus

TAF: MHTG 090345Z 0906/1006 VRB03KT 8000 SCT030 TX30/0921Z TN18/0912Z BECMG 0912/0914 09010KT CAVOK

Weather observations and forecasts of more than 4000 airports (METAR and TAF reports).

The available stations are represented by yellow and red dots on the map.

Hover mouse over dot to see the name of the station.

Then click to see weather observations and forecasts.

To change the map : click on the green buttons with a black cross to zoom in, on the green button with a dash to zoom out, or on the green arrows for adjacent maps.


METAR-TAF: